createdAt,value
2018-05-29T00:00:32.805Z,99.90
2018-05-29T00:01:35.328Z,99.90
2018-05-29T00:02:37.864Z,99.90
2018-05-29T00:03:40.418Z,99.90
2018-05-29T00:04:42.956Z,99.90
2018-05-29T00:05:45.535Z,99.90
2018-05-29T00:06:48.069Z,99.90
2018-05-29T00:07:50.600Z,99.90
2018-05-29T00:08:53.922Z,99.90
2018-05-29T00:09:56.457Z,99.90
2018-05-29T00:10:59.785Z,99.90
2018-05-29T00:12:02.355Z,99.90
2018-05-29T00:13:04.932Z,99.90
2018-05-29T00:14:07.460Z,99.90
2018-05-29T00:15:09.987Z,99.90
2018-05-29T00:16:12.520Z,99.90
2018-05-29T00:17:15.097Z,99.90
2018-05-29T00:18:17.632Z,99.90
2018-05-29T00:19:20.173Z,99.90
2018-05-29T00:20:23.481Z,99.90
2018-05-29T00:21:26.019Z,99.90
2018-05-29T00:22:28.605Z,99.90
2018-05-29T00:23:31.892Z,99.90
2018-05-29T00:24:34.445Z,99.90
2018-05-29T00:25:37.055Z,99.90
2018-05-29T00:26:39.586Z,99.90
2018-05-29T00:27:42.888Z,99.90
2018-05-29T00:28:45.419Z,99.90
2018-05-29T00:29:47.948Z,99.90
2018-05-29T00:30:50.525Z,99.90
2018-05-29T00:31:53.072Z,99.90
2018-05-29T00:32:55.615Z,99.90
2018-05-29T00:33:58.142Z,99.90
2018-05-29T00:35:00.708Z,99.90
2018-05-29T00:36:04.060Z,99.90
2018-05-29T00:37:06.588Z,99.90
2018-05-29T00:38:09.894Z,99.90
2018-05-29T00:39:12.417Z,99.90
2018-05-29T00:40:14.988Z,99.90
2018-05-29T00:41:18.332Z,99.90
2018-05-29T00:42:20.876Z,99.90
2018-05-29T00:43:23.415Z,99.90
2018-05-29T00:44:26.751Z,99.90
2018-05-29T00:45:29.292Z,99.90
2018-05-29T00:46:31.851Z,99.90
2018-05-29T00:47:34.375Z,99.90
2018-05-29T00:48:36.905Z,99.90
2018-05-29T00:49:39.428Z,99.90
2018-05-29T00:50:42.728Z,99.90
2018-05-29T00:51:45.312Z,99.90
2018-05-29T00:52:47.845Z,99.90
2018-05-29T00:53:51.141Z,99.90
2018-05-29T00:55:05.491Z,99.90
2018-05-29T00:56:08.023Z,99.90
2018-05-29T00:57:10.585Z,99.90
2018-05-29T00:58:13.169Z,99.90
2018-05-29T00:59:16.464Z,99.90
2018-05-29T01:00:19.007Z,99.90
2018-05-29T01:01:21.564Z,99.90
2018-05-29T01:02:24.133Z,99.90
2018-05-29T01:03:26.682Z,99.90
2018-05-29T01:04:29.269Z,99.90
2018-05-29T01:05:31.811Z,99.90
2018-05-29T01:06:34.353Z,99.90
2018-05-29T01:07:36.892Z,99.90
2018-05-29T01:08:40.195Z,99.90
2018-05-29T01:09:42.766Z,99.90
2018-05-29T01:10:45.300Z,99.90
2018-05-29T01:11:48.614Z,99.90
2018-05-29T01:12:51.157Z,99.90
2018-05-29T01:13:54.456Z,99.90
2018-05-29T01:14:57.035Z,99.90
2018-05-29T01:15:59.563Z,99.90
2018-05-29T01:17:02.110Z,99.90
2018-05-29T01:18:04.658Z,99.90
2018-05-29T01:19:07.200Z,99.90
2018-05-29T01:20:09.788Z,99.90
2018-05-29T01:21:12.327Z,99.90
2018-05-29T01:22:14.860Z,99.90
2018-05-29T01:23:17.393Z,99.90
2018-05-29T01:24:19.933Z,99.90
2018-05-29T01:25:22.502Z,99.90
2018-05-29T01:26:25.075Z,99.90
2018-05-29T01:27:27.608Z,99.90
2018-05-29T01:28:30.151Z,99.90
2018-05-29T01:29:32.683Z,99.90
2018-05-29T01:30:35.223Z,99.90
2018-05-29T01:31:37.789Z,99.90
2018-05-29T01:32:40.325Z,99.90
2018-05-29T01:33:43.627Z,99.90
2018-05-29T01:34:46.164Z,99.90
2018-05-29T01:35:48.703Z,99.90
2018-05-29T01:36:51.290Z,99.90
2018-05-29T01:37:53.824Z,99.90
2018-05-29T01:38:56.354Z,99.90
2018-05-29T01:39:59.660Z,99.90
2018-05-29T01:41:02.197Z,99.90
2018-05-29T01:42:05.528Z,99.90
2018-05-29T01:43:08.071Z,99.90
2018-05-29T01:44:10.652Z,99.90
2018-05-29T01:45:13.193Z,99.90
2018-05-29T01:46:15.767Z,99.90
2018-05-29T01:47:18.322Z,99.90
2018-05-29T01:48:21.644Z,99.90
2018-05-29T01:49:24.180Z,99.90
2018-05-29T01:50:26.744Z,99.90
2018-05-29T01:51:30.047Z,99.90
2018-05-29T01:52:32.613Z,99.90
2018-05-29T01:53:35.148Z,99.90
2018-05-29T01:54:38.451Z,99.90
2018-05-29T01:55:41.017Z,99.90
2018-05-29T01:56:43.555Z,99.90
2018-05-29T01:57:46.124Z,99.90
2018-05-29T01:58:48.667Z,99.90
2018-05-29T01:59:51.204Z,99.90
2018-05-29T02:00:53.735Z,99.90
2018-05-29T02:01:56.263Z,99.90
2018-05-29T02:02:58.833Z,99.90
2018-05-29T02:04:01.365Z,99.90
2018-05-29T02:05:03.892Z,99.90
2018-05-29T02:06:06.424Z,99.90
2018-05-29T02:07:09.000Z,99.90
2018-05-29T02:08:11.559Z,99.90
2018-05-29T02:09:14.093Z,99.90
2018-05-29T02:10:16.664Z,99.90
2018-05-29T02:11:19.208Z,99.90
2018-05-29T02:12:21.744Z,99.90
2018-05-29T02:13:24.272Z,99.90
2018-05-29T02:14:26.812Z,99.90
2018-05-29T02:15:29.386Z,99.90
2018-05-29T02:16:31.921Z,99.90
2018-05-29T02:17:35.227Z,99.90
2018-05-29T02:18:37.755Z,99.90
2018-05-29T02:19:40.289Z,99.90
2018-05-29T02:20:42.861Z,99.90
2018-05-29T02:21:45.421Z,99.90
2018-05-29T02:22:47.984Z,99.90
2018-05-29T02:23:50.525Z,99.90
2018-05-29T02:24:53.065Z,99.90
2018-05-29T02:25:55.638Z,99.90
2018-05-29T02:26:58.954Z,99.90
2018-05-29T02:28:01.504Z,99.90
2018-05-29T02:29:04.034Z,99.90
2018-05-29T02:30:06.579Z,99.90
2018-05-29T02:31:09.156Z,99.90
2018-05-29T02:32:11.684Z,99.90
2018-05-29T02:33:14.233Z,99.90
2018-05-29T02:34:17.591Z,99.90
2018-05-29T02:35:20.143Z,99.90
2018-05-29T02:36:22.686Z,99.90
2018-05-29T02:37:25.268Z,99.90
2018-05-29T02:38:27.808Z,99.90
2018-05-29T02:39:30.406Z,99.90
2018-05-29T02:40:32.940Z,99.90
2018-05-29T02:41:35.480Z,99.90
2018-05-29T02:42:38.047Z,99.90
2018-05-29T02:43:41.344Z,99.90
2018-05-29T02:44:43.884Z,99.90
2018-05-29T02:45:47.226Z,99.90
2018-05-29T02:46:49.775Z,99.90
2018-05-29T02:47:52.348Z,99.90
2018-05-29T02:48:54.877Z,99.90
2018-05-29T02:49:57.416Z,99.90
2018-05-29T02:50:59.980Z,99.90
2018-05-29T02:52:02.572Z,99.90
2018-05-29T02:53:05.133Z,99.90
2018-05-29T02:54:07.671Z,99.90
2018-05-29T02:55:10.222Z,99.90
2018-05-29T02:56:12.789Z,99.90
2018-05-29T02:57:15.333Z,99.90
2018-05-29T02:58:17.884Z,99.90
2018-05-29T02:59:20.419Z,99.90
2018-05-29T03:00:22.955Z,99.90
2018-05-29T03:01:25.537Z,99.90
2018-05-29T03:02:28.067Z,99.90
2018-05-29T03:03:30.613Z,99.90
2018-05-29T03:04:33.160Z,99.90
2018-05-29T03:05:35.699Z,99.90
2018-05-29T03:06:38.275Z,99.90
2018-05-29T03:07:40.821Z,99.90
2018-05-29T03:08:43.644Z,99.90
2018-05-29T03:09:46.940Z,99.90
2018-05-29T03:10:49.491Z,99.90
2018-05-29T03:11:52.828Z,99.90
2018-05-29T03:12:55.370Z,99.90
2018-05-29T03:13:57.911Z,99.90
2018-05-29T03:15:01.215Z,99.90
2018-05-29T03:16:03.770Z,99.90
2018-05-29T03:17:06.349Z,99.90
2018-05-29T03:18:08.885Z,99.90
2018-05-29T03:19:12.225Z,99.90
2018-05-29T03:20:14.770Z,99.90
2018-05-29T03:21:17.373Z,99.90
2018-05-29T03:22:19.955Z,99.90
2018-05-29T03:23:22.501Z,99.90
2018-05-29T03:24:25.053Z,99.90
2018-05-29T03:25:27.656Z,99.90
2018-05-29T03:26:30.207Z,99.90
2018-05-29T03:27:32.752Z,99.90
2018-05-29T03:28:35.293Z,99.90
2018-05-29T03:29:37.828Z,99.90
2018-05-29T03:30:40.404Z,99.90
2018-05-29T03:31:42.947Z,99.90
2018-05-29T03:32:45.481Z,99.90
2018-05-29T03:33:48.031Z,99.90
2018-05-29T03:34:50.578Z,99.90
2018-05-29T03:35:53.173Z,99.90
2018-05-29T03:36:55.705Z,99.90
2018-05-29T03:37:59.012Z,99.90
2018-05-29T03:39:01.564Z,99.90
2018-05-29T03:40:04.117Z,99.90
2018-05-29T03:41:07.524Z,99.90
2018-05-29T03:42:10.102Z,99.90
2018-05-29T03:43:12.676Z,99.90
2018-05-29T03:44:15.212Z,99.90
2018-05-29T03:45:18.540Z,99.90
2018-05-29T03:46:21.092Z,99.90
2018-05-29T03:47:23.668Z,99.90
2018-05-29T03:48:26.248Z,99.90
2018-05-29T03:49:28.799Z,99.90
2018-05-29T03:50:31.341Z,99.90
2018-05-29T03:51:33.892Z,99.90
2018-05-29T03:52:37.239Z,99.90
2018-05-29T03:53:39.791Z,99.90
2018-05-29T03:54:43.112Z,99.90
2018-05-29T03:55:45.662Z,99.90
2018-05-29T03:56:48.210Z,99.90
2018-05-29T03:57:50.779Z,99.90
2018-05-29T03:58:53.332Z,99.90
2018-05-29T03:59:55.899Z,99.90
2018-05-29T04:00:58.445Z,99.90
2018-05-29T04:02:01.745Z,99.90
2018-05-29T04:03:04.270Z,99.90
2018-05-29T04:04:06.886Z,99.90
2018-05-29T04:05:09.452Z,99.90
2018-05-29T04:06:12.838Z,99.90
2018-05-29T04:07:15.376Z,99.90
2018-05-29T04:08:18.686Z,99.90
2018-05-29T04:09:21.318Z,99.90
2018-05-29T04:10:23.833Z,99.90
2018-05-29T04:11:26.377Z,99.90
2018-05-29T04:12:28.937Z,99.90
2018-05-29T04:13:31.467Z,99.90
2018-05-29T04:14:34.829Z,99.90
2018-05-29T04:15:37.388Z,99.90
2018-05-29T04:16:39.922Z,99.90
2018-05-29T04:17:42.452Z,99.90
2018-05-29T04:18:45.036Z,99.90
2018-05-29T04:19:48.368Z,99.90
2018-05-29T04:20:50.917Z,99.90
2018-05-29T04:21:53.448Z,99.90
2018-05-29T04:22:55.973Z,99.90
2018-05-29T04:23:58.530Z,99.90
2018-05-29T04:25:01.119Z,99.90
2018-05-29T04:26:03.667Z,99.90
2018-05-29T04:27:06.201Z,99.90
2018-05-29T04:28:08.735Z,99.90
2018-05-29T04:29:11.318Z,99.90
2018-05-29T04:30:14.654Z,99.90
2018-05-29T04:31:17.189Z,99.90
2018-05-29T04:32:19.747Z,99.90
2018-05-29T04:33:22.292Z,99.90
2018-05-29T04:34:25.606Z,99.90
2018-05-29T04:35:28.176Z,99.90
2018-05-29T04:36:30.756Z,99.90
2018-05-29T04:37:33.304Z,99.90
2018-05-29T04:38:35.879Z,99.90
2018-05-29T04:39:38.448Z,99.90
2018-05-29T04:40:40.987Z,99.90
2018-05-29T04:41:44.287Z,99.90
2018-05-29T04:42:46.847Z,99.90
2018-05-29T04:43:50.150Z,99.90
2018-05-29T04:44:52.674Z,99.90
2018-05-29T04:45:55.207Z,99.90
2018-05-29T04:46:57.768Z,99.90
2018-05-29T04:48:00.342Z,99.90
2018-05-29T04:49:02.896Z,99.90
2018-05-29T04:50:05.434Z,99.90
2018-05-29T04:51:07.988Z,99.90
2018-05-29T04:52:10.537Z,99.90
2018-05-29T04:53:13.899Z,99.90
2018-05-29T04:54:16.437Z,99.90
2018-05-29T04:55:18.972Z,99.90
2018-05-29T04:56:21.504Z,99.90
2018-05-29T04:57:24.049Z,99.90
2018-05-29T04:58:26.614Z,99.90
2018-05-29T04:59:29.145Z,99.90
2018-05-29T05:00:31.712Z,99.90
2018-05-29T05:01:34.248Z,99.90
2018-05-29T05:02:36.827Z,99.90
2018-05-29T05:03:39.336Z,99.90
2018-05-29T05:04:41.872Z,99.90
2018-05-29T05:05:45.199Z,99.90
2018-05-29T05:06:47.745Z,99.90
2018-05-29T05:07:50.286Z,99.90
2018-05-29T05:08:53.653Z,99.90
2018-05-29T05:09:56.168Z,99.90
2018-05-29T05:10:58.701Z,99.90
2018-05-29T05:12:02.036Z,99.90
2018-05-29T05:13:04.577Z,99.90
2018-05-29T05:14:07.157Z,99.90
2018-05-29T05:15:10.459Z,99.90
2018-05-29T05:16:12.995Z,99.90
2018-05-29T05:17:15.565Z,99.90
2018-05-29T05:18:18.093Z,99.90
2018-05-29T05:19:21.403Z,99.90
2018-05-29T05:20:23.946Z,99.90
2018-05-29T05:21:27.292Z,99.90
2018-05-29T05:22:29.834Z,99.90
2018-05-29T05:23:32.382Z,99.90
2018-05-29T05:24:34.959Z,99.90
2018-05-29T05:25:37.499Z,99.90
2018-05-29T05:26:40.056Z,99.90
2018-05-29T05:27:42.590Z,99.90
2018-05-29T05:28:45.132Z,99.90
2018-05-29T05:29:47.725Z,99.90
2018-05-29T05:30:50.258Z,99.90
2018-05-29T05:31:52.796Z,99.90
2018-05-29T05:32:55.334Z,99.90
2018-05-29T05:33:57.871Z,99.90
2018-05-29T05:35:00.448Z,99.90
2018-05-29T05:36:03.000Z,99.90
2018-05-29T05:37:05.550Z,99.90
2018-05-29T05:38:08.080Z,99.90
2018-05-29T05:39:10.644Z,99.90
2018-05-29T05:40:13.216Z,99.90
2018-05-29T05:41:15.753Z,99.90
2018-05-29T05:42:18.294Z,99.90
2018-05-29T05:43:20.827Z,99.90
2018-05-29T05:44:23.403Z,99.90
2018-05-29T05:45:26.699Z,99.90
2018-05-29T05:46:29.231Z,99.90
2018-05-29T05:47:31.768Z,99.90
2018-05-29T05:48:34.296Z,99.90
2018-05-29T05:49:36.857Z,99.90
2018-05-29T05:50:39.393Z,99.90
2018-05-29T05:51:41.924Z,99.90
2018-05-29T05:52:44.523Z,99.90
2018-05-29T05:53:47.063Z,99.90
2018-05-29T05:54:49.609Z,99.90
2018-05-29T05:55:52.149Z,99.90
2018-05-29T05:56:55.446Z,99.90
2018-05-29T05:57:57.977Z,99.90
2018-05-29T05:59:00.547Z,99.90
2018-05-29T06:01:12.038Z,99.90
2018-05-29T06:02:15.377Z,99.90
2018-05-29T06:03:17.908Z,99.90
2018-05-29T06:04:20.445Z,99.90
2018-05-29T06:05:22.975Z,99.90
2018-05-29T06:06:25.548Z,99.90
2018-05-29T06:07:28.120Z,99.90
2018-05-29T06:08:30.655Z,99.90
2018-05-29T06:09:33.176Z,99.90
2018-05-29T06:10:35.707Z,99.90
2018-05-29T06:11:38.271Z,99.90
2018-05-29T06:12:40.813Z,99.90
2018-05-29T06:13:43.379Z,99.90
2018-05-29T06:14:45.958Z,99.90
2018-05-29T06:15:48.488Z,99.90
2018-05-29T06:16:51.787Z,99.90
2018-05-29T06:17:54.332Z,99.90
2018-05-29T06:18:57.664Z,99.90
2018-05-29T06:20:00.187Z,99.90
2018-05-29T06:21:03.499Z,99.90
2018-05-29T06:22:06.028Z,99.90
2018-05-29T06:23:08.590Z,99.90
2018-05-29T06:24:11.184Z,99.90
2018-05-29T06:25:13.716Z,99.90
2018-05-29T06:26:16.257Z,99.90
2018-05-29T06:27:18.801Z,99.90
2018-05-29T06:28:21.332Z,99.90
2018-05-29T06:29:24.666Z,99.90
2018-05-29T06:30:27.201Z,99.90
2018-05-29T06:31:30.503Z,99.90
2018-05-29T06:32:33.042Z,99.90
2018-05-29T06:33:36.332Z,99.90
2018-05-29T06:34:39.668Z,99.90
2018-05-29T06:35:42.209Z,99.90
2018-05-29T06:36:44.752Z,99.90
2018-05-29T06:37:47.288Z,99.90
2018-05-29T06:38:49.819Z,99.90
2018-05-29T06:39:52.383Z,99.90
2018-05-29T06:40:54.912Z,99.90
2018-05-29T06:41:58.257Z,99.90
2018-05-29T06:43:00.796Z,99.90
2018-05-29T06:44:03.325Z,99.90
2018-05-29T06:45:06.680Z,99.90
2018-05-29T06:46:09.215Z,99.90
2018-05-29T06:47:11.762Z,99.90
2018-05-29T06:48:14.351Z,99.90
2018-05-29T06:49:16.895Z,99.90
2018-05-29T06:50:19.488Z,99.90
2018-05-29T06:51:22.032Z,99.90
2018-05-29T06:52:24.565Z,99.90
2018-05-29T06:53:27.099Z,99.90
2018-05-29T06:54:29.639Z,99.90
2018-05-29T06:55:32.214Z,99.90
2018-05-29T06:56:34.788Z,99.90
2018-05-29T06:57:37.323Z,99.90
2018-05-29T06:58:39.861Z,99.90
2018-05-29T06:59:43.160Z,99.90
2018-05-29T07:00:46.487Z,99.90
2018-05-29T07:01:49.024Z,99.90
2018-05-29T07:02:51.555Z,99.90
2018-05-29T07:03:54.157Z,99.90
2018-05-29T07:04:56.690Z,99.90
2018-05-29T07:05:59.229Z,99.90
2018-05-29T07:07:01.805Z,99.90
2018-05-29T07:08:04.364Z,99.90
2018-05-29T07:09:06.902Z,99.90
2018-05-29T07:10:09.429Z,99.90
2018-05-29T07:11:12.742Z,99.90
2018-05-29T07:12:15.319Z,99.90
2018-05-29T07:13:17.848Z,99.90
2018-05-29T07:14:20.376Z,99.90
2018-05-29T07:15:22.927Z,99.90
2018-05-29T07:16:25.480Z,99.90
2018-05-29T07:17:28.070Z,99.90
2018-05-29T07:18:30.618Z,99.90
2018-05-29T07:19:33.161Z,99.90
2018-05-29T07:20:36.452Z,99.90
2018-05-29T07:21:38.976Z,99.90
2018-05-29T07:22:41.549Z,99.90
2018-05-29T07:23:44.082Z,99.90
2018-05-29T07:24:46.674Z,99.90
2018-05-29T07:25:49.172Z,99.90
2018-05-29T07:26:52.469Z,99.90
2018-05-29T07:27:55.028Z,99.90
2018-05-29T07:28:58.328Z,99.90
2018-05-29T07:30:00.851Z,99.90
2018-05-29T07:31:03.384Z,99.90
2018-05-29T07:32:05.921Z,99.90
2018-05-29T07:33:08.480Z,99.90
2018-05-29T07:34:11.007Z,99.90
2018-05-29T07:35:14.330Z,99.90
2018-05-29T07:36:17.700Z,99.90
2018-05-29T07:37:20.996Z,99.90
2018-05-29T07:38:24.331Z,99.90
2018-05-29T07:39:26.936Z,99.90
2018-05-29T07:40:29.401Z,99.90
2018-05-29T07:41:32.705Z,99.90
2018-05-29T07:42:35.240Z,99.90
2018-05-29T07:43:37.800Z,99.90
2018-05-29T07:44:40.338Z,99.90
2018-05-29T07:45:42.877Z,99.90
2018-05-29T07:46:45.416Z,99.90
2018-05-29T07:47:47.933Z,99.90
2018-05-29T07:48:50.495Z,99.90
2018-05-29T07:49:53.051Z,99.90
2018-05-29T07:50:55.581Z,99.90
2018-05-29T07:51:58.920Z,99.90
2018-05-29T07:53:01.468Z,99.90
2018-05-29T07:54:04.002Z,99.90
2018-05-29T07:55:07.300Z,99.90
2018-05-29T07:56:09.874Z,99.90
2018-05-29T07:57:12.409Z,99.90
2018-05-29T07:58:15.706Z,99.90
2018-05-29T07:59:19.013Z,99.90
2018-05-29T08:00:21.542Z,99.90
2018-05-29T08:01:24.108Z,99.90
2018-05-29T08:02:27.421Z,99.90
2018-05-29T08:03:29.971Z,99.90
2018-05-29T08:04:33.270Z,99.90
2018-05-29T08:05:35.810Z,99.90
2018-05-29T08:06:38.384Z,99.90
2018-05-29T08:07:40.921Z,99.90
2018-05-29T08:08:43.456Z,99.90
2018-05-29T08:09:46.024Z,99.90
2018-05-29T08:10:48.549Z,99.90
2018-05-29T08:11:51.857Z,99.90
2018-05-29T08:12:54.393Z,99.90
2018-05-29T08:13:57.719Z,99.90
2018-05-29T08:15:00.247Z,99.90
2018-05-29T08:16:03.546Z,99.90
2018-05-29T08:17:06.847Z,99.90
2018-05-29T08:18:09.403Z,99.90
2018-05-29T08:19:11.935Z,99.90
2018-05-29T08:20:14.508Z,99.90
2018-05-29T08:21:17.029Z,99.90
2018-05-29T08:23:29.172Z,99.90
2018-05-29T08:24:31.732Z,99.90
2018-05-29T08:25:34.275Z,99.90
2018-05-29T08:26:36.804Z,99.90
2018-05-29T08:27:39.323Z,99.90
2018-05-29T08:28:41.864Z,99.90
2018-05-29T08:29:44.433Z,99.90
2018-05-29T08:30:46.969Z,99.90
2018-05-29T08:31:49.532Z,99.90
2018-05-29T08:32:52.051Z,99.90
2018-05-29T08:33:54.587Z,99.90
2018-05-29T08:34:57.140Z,99.90
2018-05-29T08:35:59.699Z,99.90
2018-05-29T08:37:02.252Z,99.90
2018-05-29T08:38:04.787Z,99.90
2018-05-29T08:39:07.333Z,99.90
2018-05-29T08:40:09.896Z,99.90
2018-05-29T08:41:12.424Z,99.90
2018-05-29T08:42:14.960Z,99.90
2018-05-29T08:43:17.494Z,99.90
2018-05-29T08:44:20.083Z,99.90
2018-05-29T08:45:22.609Z,99.70
2018-05-29T08:46:25.216Z,99.40
2018-05-29T08:47:27.700Z,99.60
2018-05-29T08:48:30.226Z,99.90
2018-05-29T08:49:32.805Z,99.90
2018-05-29T08:50:35.335Z,99.80
2018-05-29T08:51:37.870Z,99.30
2018-05-29T08:52:41.168Z,99.90
2018-05-29T08:53:44.494Z,99.70
2018-05-29T08:54:47.013Z,99.70
2018-05-29T08:55:50.308Z,98.70
2018-05-29T08:56:52.863Z,98.70
2018-05-29T08:57:55.390Z,99.90
2018-05-29T08:58:57.955Z,98.10
2018-05-29T09:00:00.521Z,97.80
2018-05-29T09:01:03.063Z,97.60
2018-05-29T09:02:05.594Z,97.70
2018-05-29T09:03:08.883Z,98.20
2018-05-29T09:04:11.464Z,98.10
2018-05-29T09:05:14.008Z,98.90
2018-05-29T09:06:17.299Z,98.40
2018-05-29T09:07:20.589Z,97.60
2018-05-29T09:08:23.149Z,97.60
2018-05-29T09:09:26.494Z,97.90
2018-05-29T09:10:29.029Z,98.20
2018-05-29T09:11:31.563Z,98.30
2018-05-29T09:12:34.869Z,97.50
2018-05-29T09:13:38.160Z,97.70
2018-05-29T09:14:40.741Z,97.70
2018-05-29T09:15:43.276Z,97.40
2018-05-29T09:16:45.827Z,97.60
2018-05-29T09:17:49.137Z,96.40
2018-05-29T09:18:51.678Z,96.40
2018-05-29T09:19:54.289Z,96.70
2018-05-29T09:20:57.544Z,96.70
2018-05-29T09:22:00.064Z,96.70
2018-05-29T09:23:02.640Z,95.80
2018-05-29T09:24:05.171Z,95.70
2018-05-29T09:25:07.699Z,95.70
2018-05-29T09:26:10.994Z,96.30
2018-05-29T09:27:13.572Z,96.30
2018-05-29T09:28:16.094Z,95.80
2018-05-29T09:29:18.616Z,95.60
2018-05-29T09:30:21.153Z,95.00
2018-05-29T09:31:23.677Z,95.20
2018-05-29T09:32:26.242Z,95.00
2018-05-29T09:33:28.817Z,94.90
2018-05-29T09:34:31.345Z,95.20
2018-05-29T09:35:33.942Z,95.10
2018-05-29T09:36:36.481Z,96.50
2018-05-29T09:37:39.019Z,94.90
2018-05-29T09:38:41.549Z,94.30
2018-05-29T09:39:44.117Z,94.80
2018-05-29T09:40:46.689Z,94.70
2018-05-29T09:41:49.251Z,94.90
2018-05-29T09:42:51.778Z,94.80
2018-05-29T09:43:54.324Z,95.50
2018-05-29T09:44:56.848Z,94.70
2018-05-29T09:45:59.480Z,95.10
2018-05-29T09:47:02.734Z,94.10
2018-05-29T09:48:05.279Z,94.10
2018-05-29T09:49:07.813Z,94.70
2018-05-29T09:50:10.348Z,93.90
2018-05-29T09:51:12.911Z,94.10
2018-05-29T09:52:15.441Z,94.90
2018-05-29T09:53:18.780Z,94.50
2018-05-29T09:54:21.316Z,94.10
2018-05-29T09:55:23.842Z,94.30
2018-05-29T09:56:26.369Z,93.10
2018-05-29T09:57:28.897Z,92.50
2018-05-29T09:58:32.236Z,92.60
2018-05-29T09:59:34.763Z,92.50
2018-05-29T10:00:40.093Z,92.30
2018-05-29T10:01:42.628Z,93.00
2018-05-29T10:02:45.152Z,94.20
2018-05-29T10:03:47.723Z,94.40
2018-05-29T10:04:50.253Z,94.10
2018-05-29T10:05:53.548Z,93.60
2018-05-29T10:06:56.142Z,93.60
2018-05-29T10:07:58.638Z,93.60
2018-05-29T10:09:01.204Z,93.10
2018-05-29T10:10:03.733Z,92.20
2018-05-29T10:11:06.264Z,92.40
2018-05-29T10:12:08.794Z,91.80
2018-05-29T10:13:11.383Z,91.80
2018-05-29T10:14:13.925Z,91.90
2018-05-29T10:15:17.235Z,92.00
2018-05-29T10:16:20.527Z,91.70
2018-05-29T10:17:23.047Z,91.70
2018-05-29T10:18:25.615Z,92.50
2018-05-29T10:19:28.169Z,91.20
2018-05-29T10:20:30.745Z,92.10
2018-05-29T10:21:33.295Z,91.20
2018-05-29T10:22:35.836Z,90.80
2018-05-29T10:23:38.411Z,90.20
2018-05-29T10:24:40.999Z,90.60
2018-05-29T10:25:43.512Z,90.70
2018-05-29T10:26:46.813Z,90.20
2018-05-29T10:27:50.109Z,89.20
2018-05-29T10:28:52.677Z,89.20
2018-05-29T10:29:55.209Z,89.50
2018-05-29T10:30:57.769Z,91.50
2018-05-29T10:32:01.037Z,88.80
2018-05-29T10:33:03.574Z,88.70
2018-05-29T10:34:06.136Z,89.20
2018-05-29T10:35:08.675Z,88.80
2018-05-29T10:36:11.975Z,90.40
2018-05-29T10:37:14.513Z,90.40
2018-05-29T10:38:17.092Z,89.80
2018-05-29T10:39:20.379Z,90.30
2018-05-29T10:40:22.906Z,90.30
2018-05-29T10:41:25.432Z,88.40
2018-05-29T10:42:27.968Z,88.20
2018-05-29T10:43:31.298Z,86.20
2018-05-29T10:44:33.835Z,86.30
2018-05-29T10:45:36.366Z,89.10
2018-05-29T10:46:38.902Z,88.30
2018-05-29T10:47:41.470Z,87.20
2018-05-29T10:48:44.036Z,85.00
2018-05-29T10:49:46.577Z,85.90
2018-05-29T10:50:49.107Z,86.00
2018-05-29T10:51:51.637Z,85.50
2018-05-29T10:52:54.192Z,85.40
2018-05-29T10:53:56.728Z,85.30
2018-05-29T10:54:59.257Z,84.60
2018-05-29T10:56:01.794Z,84.80
2018-05-29T10:57:04.324Z,84.50
2018-05-29T10:58:06.888Z,85.30
2018-05-29T10:59:10.233Z,85.30
2018-05-29T11:00:12.732Z,85.50
2018-05-29T11:01:16.032Z,85.20
2018-05-29T11:02:18.572Z,85.10
2018-05-29T11:03:21.125Z,82.70
2018-05-29T11:04:23.684Z,83.30
2018-05-29T11:05:26.216Z,82.10
2018-05-29T11:06:28.785Z,82.00
2018-05-29T11:07:31.308Z,82.20
2018-05-29T11:08:34.647Z,81.70
2018-05-29T11:09:37.180Z,81.70
2018-05-29T11:10:39.714Z,81.80
2018-05-29T11:11:42.278Z,78.80
2018-05-29T11:12:44.808Z,79.30
2018-05-29T11:13:47.359Z,78.00
2018-05-29T11:14:49.931Z,81.70
2018-05-29T11:15:52.465Z,79.40
2018-05-29T11:18:03.863Z,80.70
2018-05-29T11:19:06.396Z,76.70
2018-05-29T11:20:09.770Z,77.80
2018-05-29T11:21:12.301Z,77.80
2018-05-29T11:22:15.594Z,81.60
2018-05-29T11:23:18.125Z,81.60
2018-05-29T11:24:20.650Z,77.20
2018-05-29T11:25:23.220Z,77.90
2018-05-29T11:26:25.762Z,75.90
2018-05-29T11:27:28.285Z,73.90
2018-05-29T11:28:30.848Z,76.10
2018-05-29T11:29:34.144Z,74.10
2018-05-29T11:30:36.672Z,74.20
2018-05-29T11:31:39.196Z,75.60
2018-05-29T11:32:41.716Z,74.90
2018-05-29T11:33:45.039Z,74.30
2018-05-29T11:34:47.604Z,74.20
2018-05-29T11:35:50.136Z,73.90
2018-05-29T11:36:53.419Z,74.50
2018-05-29T11:37:56.708Z,75.70
2018-05-29T11:38:59.995Z,78.80
2018-05-29T11:40:03.318Z,75.70
2018-05-29T11:41:05.882Z,75.70
2018-05-29T11:42:08.414Z,76.20
2018-05-29T11:43:11.704Z,73.60
2018-05-29T11:44:14.983Z,73.40
2018-05-29T11:45:17.550Z,73.40
2018-05-29T11:46:20.079Z,72.60
2018-05-29T11:47:22.638Z,76.70
2018-05-29T11:48:25.172Z,73.10
2018-05-29T11:49:27.728Z,73.30
2018-05-29T11:50:30.253Z,74.40
2018-05-29T11:51:32.792Z,72.90
2018-05-29T11:52:35.370Z,72.30
2018-05-29T11:53:37.900Z,72.70
2018-05-29T11:54:40.434Z,75.10
2018-05-29T11:55:43.741Z,75.50
2018-05-29T11:56:46.267Z,75.30
2018-05-29T11:57:48.852Z,74.10
2018-05-29T11:58:51.381Z,74.90
2018-05-29T11:59:53.908Z,75.20
2018-05-29T12:00:56.447Z,75.70
2018-05-29T12:01:59.798Z,73.40
2018-05-29T12:03:02.324Z,73.20
2018-05-29T12:04:04.865Z,73.50
2018-05-29T12:05:08.156Z,71.80
2018-05-29T12:06:10.699Z,71.80
2018-05-29T12:07:13.263Z,72.20
2018-05-29T12:08:15.818Z,71.80
2018-05-29T12:09:18.376Z,72.10
2018-05-29T12:10:21.680Z,70.40
2018-05-29T12:11:24.197Z,70.40
2018-05-29T12:12:26.728Z,71.00
2018-05-29T12:13:30.052Z,70.50
2018-05-29T12:14:32.577Z,70.50
2018-05-29T12:15:35.133Z,73.80
2018-05-29T12:16:37.659Z,71.20
2018-05-29T12:17:40.220Z,71.30
2018-05-29T12:18:42.756Z,71.20
2018-05-29T12:19:45.289Z,70.80
2018-05-29T12:20:47.816Z,71.30
2018-05-29T12:21:50.384Z,70.40
2018-05-29T12:22:52.903Z,71.80
2018-05-29T12:23:55.425Z,70.60
2018-05-29T12:24:57.957Z,73.50
2018-05-29T12:26:00.523Z,72.20
2018-05-29T12:27:03.847Z,72.60
2018-05-29T12:28:06.367Z,72.50
2018-05-29T12:29:09.694Z,72.10
2018-05-29T12:30:12.256Z,72.00
2018-05-29T12:31:14.794Z,73.70
2018-05-29T12:32:17.320Z,73.20
2018-05-29T12:33:19.867Z,72.40
2018-05-29T12:34:22.411Z,72.90
2018-05-29T12:35:24.967Z,73.40
2018-05-29T12:36:27.649Z,71.00
2018-05-29T12:37:30.186Z,71.80
2018-05-29T12:38:33.476Z,69.70
2018-05-29T12:39:36.009Z,69.70
2018-05-29T12:40:38.576Z,70.00
2018-05-29T12:41:41.113Z,69.60
2018-05-29T12:42:43.656Z,73.70
2018-05-29T12:43:46.240Z,68.80
2018-05-29T12:44:48.766Z,70.90
2018-05-29T12:45:52.063Z,68.00
2018-05-29T12:46:54.595Z,68.00
2018-05-29T12:47:57.173Z,68.90
2018-05-29T12:49:00.479Z,67.30
2018-05-29T12:50:03.010Z,67.20
2018-05-29T12:51:05.548Z,67.50
2018-05-29T12:52:08.112Z,68.30
2018-05-29T12:53:10.690Z,68.30
2018-05-29T12:54:13.228Z,69.00
2018-05-29T12:55:15.768Z,67.70
2018-05-29T12:56:18.306Z,68.10
2018-05-29T12:57:20.885Z,67.70
2018-05-29T12:58:24.271Z,66.90
2018-05-29T12:59:27.572Z,68.40
2018-05-29T13:00:30.111Z,67.50
2018-05-29T13:01:32.676Z,67.10
2018-05-29T13:02:35.203Z,67.10
2018-05-29T13:03:37.737Z,67.90
2018-05-29T13:04:40.267Z,67.50
2018-05-29T13:05:42.798Z,66.80
2018-05-29T13:06:45.372Z,66.70
2018-05-29T13:07:47.903Z,66.60
2018-05-29T13:08:50.437Z,66.60
2018-05-29T13:09:53.748Z,65.10
2018-05-29T13:10:57.050Z,65.70
2018-05-29T13:11:59.632Z,65.50
2018-05-29T13:13:02.173Z,65.90
2018-05-29T13:14:04.701Z,64.50
2018-05-29T13:15:07.286Z,63.70
2018-05-29T13:16:09.780Z,66.10
2018-05-29T13:17:12.347Z,66.40
2018-05-29T13:18:14.866Z,64.70
2018-05-29T13:19:17.452Z,66.90
2018-05-29T13:20:20.745Z,65.60
2018-05-29T13:21:23.281Z,65.20
2018-05-29T13:22:25.815Z,64.30
2018-05-29T13:23:28.347Z,65.80
2018-05-29T13:24:31.681Z,66.10
2018-05-29T13:25:34.204Z,66.10
2018-05-29T13:26:36.731Z,64.30
2018-05-29T13:27:39.278Z,63.70
2018-05-29T13:28:41.847Z,64.50
2018-05-29T13:29:44.414Z,64.30
2018-05-29T13:30:46.964Z,66.80